createdAt,value
2023-04-29T00:00:59.688Z,40.17
2023-04-29T00:03:29.532Z,40.87
2023-04-29T00:05:57.614Z,39.93
2023-04-29T00:08:25.621Z,39.43
2023-04-29T00:10:55.410Z,41.93
2023-04-29T00:13:23.217Z,44.67
2023-04-29T00:15:50.920Z,45.13
2023-04-29T00:18:18.753Z,44.93
2023-04-29T00:20:46.439Z,45.13
2023-04-29T00:23:14.174Z,45.87
2023-04-29T00:25:42.085Z,47.50
2023-04-29T00:28:11.304Z,50.57
2023-04-29T00:30:39.110Z,47.93
2023-04-29T00:33:06.906Z,48.37
2023-04-29T00:35:36.479Z,51.93
2023-04-29T00:38:04.341Z,54.97
2023-04-29T00:40:32.163Z,53.97
2023-04-29T00:42:59.949Z,57.77
2023-04-29T00:45:29.481Z,56.27
2023-04-29T00:47:57.534Z,56.77
2023-04-29T00:50:26.094Z,60.13
2023-04-29T00:52:53.882Z,60.60
2023-04-29T00:55:22.162Z,65.07
2023-04-29T00:57:52.555Z,69.87
2023-04-29T01:00:20.705Z,70.30
2023-04-29T01:02:51.329Z,71.60
2023-04-29T01:05:19.376Z,69.10
2023-04-29T01:07:57.990Z,69.57
2023-04-29T01:10:29.828Z,73.53
2023-04-29T01:13:08.044Z,74.93
2023-04-29T01:15:43.417Z,70.77
2023-04-29T01:18:21.884Z,78.47
2023-04-29T01:20:50.310Z,73.00
2023-04-29T01:23:18.151Z,78.97
2023-04-29T01:25:48.950Z,77.50
2023-04-29T01:28:40.012Z,75.70
2023-04-29T01:31:12.089Z,73.63
2023-04-29T01:33:45.577Z,71.37
2023-04-29T01:36:23.798Z,72.77
2023-04-29T01:39:01.625Z,72.67
2023-04-29T01:41:39.229Z,72.60
2023-04-29T01:44:19.694Z,74.97
2023-04-29T01:46:54.201Z,73.47
2023-04-29T01:49:26.468Z,74.53
2023-04-29T01:51:54.451Z,76.60
2023-04-29T01:54:23.172Z,81.73
2023-04-29T01:56:53.061Z,79.77
2023-04-29T01:59:30.273Z,72.67
2023-04-29T02:02:34.431Z,76.63
2023-04-29T02:05:12.502Z,80.13
2023-04-29T02:07:44.711Z,82.10
2023-04-29T02:10:13.058Z,79.47
2023-04-29T02:12:45.125Z,78.40
2023-04-29T02:15:13.257Z,81.63
2023-04-29T02:17:41.434Z,71.90
2023-04-29T02:20:10.578Z,66.93
2023-04-29T02:22:38.373Z,69.53
2023-04-29T02:25:07.287Z,66.63
2023-04-29T02:27:35.102Z,71.77
2023-04-29T02:30:04.874Z,64.00
2023-04-29T02:32:33.146Z,60.93
2023-04-29T02:35:01.196Z,57.00
2023-04-29T02:37:29.885Z,58.73
2023-04-29T02:39:57.660Z,49.47
2023-04-29T02:42:25.366Z,49.10
2023-04-29T02:44:53.116Z,50.23
2023-04-29T02:47:22.386Z,53.57
2023-04-29T02:49:50.614Z,48.80
2023-04-29T02:52:19.065Z,50.83
2023-04-29T02:54:47.988Z,48.37
2023-04-29T02:57:15.724Z,50.00
2023-04-29T02:59:44.208Z,42.20
2023-04-29T03:02:12.758Z,43.20
2023-04-29T03:04:42.387Z,41.37
2023-04-29T03:07:10.611Z,44.10
2023-04-29T03:09:38.410Z,42.13
2023-04-29T03:12:06.539Z,39.20
2023-04-29T03:14:34.616Z,41.87
2023-04-29T03:17:02.970Z,41.03
2023-04-29T03:19:31.247Z,37.47
2023-04-29T03:22:00.789Z,45.37
2023-04-29T03:24:28.721Z,39.63
2023-04-29T03:26:56.751Z,37.30
2023-04-29T03:29:24.986Z,40.17
2023-04-29T03:31:53.045Z,41.53
2023-04-29T03:34:21.078Z,40.77
2023-04-29T03:36:57.801Z,38.83
2023-04-29T03:39:28.204Z,36.40
2023-04-29T03:41:56.167Z,39.30
2023-04-29T03:44:24.068Z,40.33
2023-04-29T03:46:51.828Z,37.80
2023-04-29T03:49:20.638Z,39.47
2023-04-29T03:51:48.500Z,35.57
2023-04-29T03:54:17.802Z,35.77
2023-04-29T03:56:47.367Z,34.30
2023-04-29T03:59:15.242Z,34.97
2023-04-29T04:01:43.670Z,32.20
2023-04-29T04:04:12.549Z,36.33
2023-04-29T04:06:51.131Z,35.07
2023-04-29T04:09:21.574Z,32.13
2023-04-29T04:11:50.858Z,29.17
2023-04-29T04:14:19.557Z,30.23
2023-04-29T04:16:47.332Z,30.00
2023-04-29T04:19:15.558Z,35.07
2023-04-29T04:21:46.285Z,31.03
2023-04-29T04:24:14.674Z,30.27
2023-04-29T04:26:43.241Z,29.97
2023-04-29T04:29:18.202Z,30.80
2023-04-29T04:32:00.105Z,32.10
2023-04-29T04:34:28.470Z,30.07
2023-04-29T04:36:58.517Z,29.30
2023-04-29T04:39:26.385Z,27.30
2023-04-29T04:41:56.542Z,28.20
2023-04-29T04:44:26.072Z,31.33
2023-04-29T04:47:14.133Z,30.70
2023-04-29T04:49:52.841Z,33.47
2023-04-29T04:52:39.533Z,31.33
2023-04-29T04:55:24.326Z,29.20
2023-04-29T04:57:52.845Z,31.40
2023-04-29T05:00:20.804Z,31.23
2023-04-29T05:02:48.709Z,31.07
2023-04-29T05:05:16.695Z,29.70
2023-04-29T05:07:46.317Z,26.77
2023-04-29T05:10:14.379Z,32.13
2023-04-29T05:12:48.196Z,30.30
2023-04-29T05:15:17.067Z,30.00
2023-04-29T05:17:45.871Z,27.80
2023-04-29T05:20:14.105Z,29.70
2023-04-29T05:22:41.995Z,31.13
2023-04-29T05:25:12.471Z,30.53
2023-04-29T05:27:41.323Z,29.77
2023-04-29T05:30:13.774Z,25.70
2023-04-29T05:32:41.685Z,28.30
2023-04-29T05:35:13.936Z,28.40
2023-04-29T05:37:42.017Z,30.70
2023-04-29T05:40:32.025Z,27.80
2023-04-29T05:43:28.573Z,30.23
2023-04-29T05:45:59.272Z,27.97
2023-04-29T05:48:27.011Z,30.07
2023-04-29T05:50:54.947Z,28.43
2023-04-29T05:53:22.999Z,27.33
2023-04-29T05:55:52.402Z,28.43
2023-04-29T05:58:22.211Z,29.00
2023-04-29T06:00:50.618Z,28.77
2023-04-29T06:03:23.283Z,27.60
2023-04-29T06:06:12.194Z,30.90
2023-04-29T06:08:58.726Z,26.70
2023-04-29T06:11:31.471Z,30.57
2023-04-29T06:13:59.263Z,29.10
2023-04-29T06:16:27.023Z,27.40
2023-04-29T06:18:55.955Z,31.63
2023-04-29T06:21:23.798Z,25.57
2023-04-29T06:23:53.205Z,27.97
2023-04-29T06:26:22.401Z,26.30
2023-04-29T06:28:52.056Z,29.13
2023-04-29T06:31:21.785Z,26.30
2023-04-29T06:33:51.198Z,24.87
2023-04-29T06:36:18.968Z,27.83
2023-04-29T06:38:58.887Z,27.67
2023-04-29T06:41:53.415Z,27.43
2023-04-29T06:44:45.454Z,26.17
2023-04-29T06:47:39.752Z,26.97
2023-04-29T06:50:12.372Z,26.17
2023-04-29T06:52:40.111Z,24.60
2023-04-29T06:55:08.611Z,23.90
2023-04-29T06:57:36.769Z,23.63
2023-04-29T07:00:07.541Z,25.60
2023-04-29T07:02:35.296Z,27.77
2023-04-29T07:05:03.973Z,27.90
2023-04-29T07:07:31.792Z,26.83
2023-04-29T07:10:00.299Z,24.27
2023-04-29T07:12:27.990Z,31.03
2023-04-29T07:14:55.876Z,28.23
2023-04-29T07:17:25.782Z,28.77
2023-04-29T07:19:53.893Z,27.20
2023-04-29T07:22:22.580Z,28.33
2023-04-29T07:24:50.420Z,25.93
2023-04-29T07:27:18.260Z,27.10
2023-04-29T07:29:45.947Z,26.30
2023-04-29T07:32:13.851Z,32.00
2023-04-29T07:34:43.280Z,28.70
2023-04-29T07:37:11.096Z,33.50
2023-04-29T07:39:39.052Z,28.50
2023-04-29T07:42:06.872Z,28.60
2023-04-29T07:44:34.738Z,31.17
2023-04-29T07:47:02.439Z,33.13
2023-04-29T07:49:30.309Z,31.43
2023-04-29T07:52:00.224Z,35.67
2023-04-29T07:54:27.985Z,38.77
2023-04-29T07:56:55.981Z,40.80
2023-04-29T07:59:24.068Z,37.73
2023-04-29T08:01:52.359Z,36.80
2023-04-29T08:04:20.995Z,36.93
2023-04-29T08:06:54.731Z,35.30
2023-04-29T08:09:23.780Z,37.23
2023-04-29T08:11:51.436Z,33.30
2023-04-29T08:14:19.165Z,34.40
2023-04-29T08:16:46.876Z,34.60
2023-04-29T08:19:14.558Z,35.17
2023-04-29T08:21:42.686Z,31.90
2023-04-29T08:24:10.433Z,34.13
2023-04-29T08:26:41.221Z,31.27
2023-04-29T08:29:09.003Z,33.07
2023-04-29T08:31:36.733Z,33.77
2023-04-29T08:34:04.560Z,34.70
2023-04-29T08:36:32.301Z,33.17
2023-04-29T08:38:59.932Z,31.87
2023-04-29T08:41:27.938Z,32.40
2023-04-29T08:43:57.206Z,38.17
2023-04-29T08:46:26.968Z,34.43
2023-04-29T08:48:58.868Z,35.60
2023-04-29T08:51:26.601Z,37.53
2023-04-29T08:53:54.374Z,35.93
2023-04-29T08:56:23.178Z,32.67
2023-04-29T08:58:54.451Z,40.57
2023-04-29T09:01:24.760Z,38.83
2023-04-29T09:03:58.482Z,37.63
2023-04-29T09:06:26.701Z,40.77
2023-04-29T09:08:55.118Z,39.10
2023-04-29T09:11:23.739Z,35.97
2023-04-29T09:13:51.429Z,37.17
2023-04-29T09:16:19.534Z,37.83
2023-04-29T09:18:50.306Z,39.87
2023-04-29T09:21:22.319Z,37.90
2023-04-29T09:23:52.575Z,36.93
2023-04-29T09:26:20.756Z,34.10
2023-04-29T09:28:49.867Z,36.57
2023-04-29T09:31:28.774Z,35.13
2023-04-29T09:33:59.072Z,37.00
2023-04-29T09:36:41.153Z,35.27
2023-04-29T09:39:12.561Z,33.50
2023-04-29T09:41:59.037Z,38.20
2023-04-29T09:44:29.513Z,33.80
2023-04-29T09:47:02.372Z,31.73
2023-04-29T09:49:35.532Z,32.87
2023-04-29T09:52:05.102Z,35.23
2023-04-29T09:54:36.346Z,31.93
2023-04-29T09:57:07.245Z,35.17
2023-04-29T09:59:37.404Z,32.40
2023-04-29T10:02:09.347Z,34.10
2023-04-29T10:04:42.446Z,32.50
2023-04-29T10:07:15.014Z,32.30
2023-04-29T10:09:42.919Z,34.57
2023-04-29T10:12:11.107Z,33.93
2023-04-29T10:14:45.728Z,31.60
2023-04-29T10:17:20.086Z,30.87
2023-04-29T10:19:59.385Z,31.83
2023-04-29T10:22:32.592Z,30.60
2023-04-29T10:25:02.189Z,32.87
2023-04-29T10:27:34.832Z,35.30
2023-04-29T10:30:05.007Z,27.60
2023-04-29T10:32:49.694Z,26.60
2023-04-29T10:35:23.708Z,32.50
2023-04-29T10:37:52.932Z,27.40
2023-04-29T10:40:26.205Z,30.50
2023-04-29T10:42:54.940Z,28.07
2023-04-29T10:45:25.164Z,35.50
2023-04-29T10:48:13.299Z,31.97
2023-04-29T10:51:02.586Z,30.03
2023-04-29T10:53:30.738Z,31.63
2023-04-29T10:56:00.943Z,29.80
2023-04-29T10:58:36.696Z,29.70
2023-04-29T11:01:04.734Z,26.43
2023-04-29T11:03:48.322Z,31.63
2023-04-29T11:06:18.094Z,27.07
2023-04-29T11:08:45.834Z,27.23
2023-04-29T11:11:15.527Z,27.00
2023-04-29T11:13:47.871Z,29.17
2023-04-29T11:16:15.858Z,27.67
2023-04-29T11:19:07.844Z,25.73
2023-04-29T11:21:38.026Z,28.20
2023-04-29T11:24:07.511Z,26.30
2023-04-29T11:26:36.395Z,24.83
2023-04-29T11:29:05.856Z,30.43
2023-04-29T11:31:34.654Z,25.77
2023-04-29T11:34:02.456Z,25.00
2023-04-29T11:36:32.599Z,30.97
2023-04-29T11:39:03.528Z,24.23
2023-04-29T11:41:32.473Z,26.00
2023-04-29T11:44:01.348Z,25.47
2023-04-29T11:46:32.241Z,27.07
2023-04-29T11:49:01.156Z,31.70
2023-04-29T11:51:29.877Z,23.93
2023-04-29T11:53:58.796Z,24.70
2023-04-29T11:56:28.059Z,24.83
2023-04-29T11:58:56.723Z,24.30
2023-04-29T12:01:24.651Z,23.83
2023-04-29T12:03:52.563Z,22.20
2023-04-29T12:06:20.590Z,21.37
2023-04-29T12:08:48.278Z,22.03
2023-04-29T12:11:16.069Z,27.50
2023-04-29T12:13:46.278Z,19.30
2023-04-29T12:16:14.408Z,21.73
2023-04-29T12:18:42.278Z,21.90
2023-04-29T12:21:10.364Z,18.73
2023-04-29T12:23:39.264Z,18.47
2023-04-29T12:26:07.999Z,23.13
2023-04-29T12:28:35.736Z,19.67
2023-04-29T12:31:04.816Z,14.67
2023-04-29T12:33:32.834Z,19.73
2023-04-29T12:36:00.541Z,18.90
2023-04-29T12:38:31.208Z,13.77
2023-04-29T12:41:01.008Z,16.93
2023-04-29T12:43:29.353Z,16.07
2023-04-29T12:46:02.365Z,14.37
2023-04-29T12:48:33.594Z,16.20
2023-04-29T12:51:02.161Z,15.30
2023-04-29T12:53:31.156Z,13.77
2023-04-29T12:55:59.484Z,13.63
2023-04-29T12:58:30.252Z,14.50
2023-04-29T13:00:58.257Z,15.10
2023-04-29T13:03:26.879Z,14.03
2023-04-29T13:05:56.313Z,14.70
2023-04-29T13:08:24.414Z,13.70
2023-04-29T13:10:52.156Z,12.73
2023-04-29T13:13:19.865Z,16.90
2023-04-29T13:15:47.590Z,12.50
2023-04-29T13:18:15.925Z,17.57
2023-04-29T13:20:43.754Z,12.90
2023-04-29T13:23:13.012Z,13.43
2023-04-29T13:25:41.106Z,14.67
2023-04-29T13:28:08.877Z,14.30
2023-04-29T13:30:37.106Z,13.83
2023-04-29T13:33:11.772Z,10.20
2023-04-29T13:35:41.608Z,13.07
2023-04-29T13:38:09.816Z,15.60
2023-04-29T13:40:45.264Z,12.47
2023-04-29T13:43:18.631Z,15.77
2023-04-29T13:45:53.167Z,12.83
2023-04-29T13:54:01.867Z,14.43
2023-04-29T14:01:44.118Z,14.20
2023-04-29T14:04:03.219Z,15.27
2023-04-29T14:06:32.562Z,13.50
2023-04-29T14:09:01.686Z,12.93
2023-04-29T14:11:36.471Z,13.33
2023-04-29T14:14:04.771Z,12.17
2023-04-29T14:16:32.955Z,13.77
2023-04-29T14:19:02.997Z,13.60
2023-04-29T14:21:33.070Z,12.83
2023-04-29T14:24:02.441Z,11.93
2023-04-29T14:26:30.936Z,9.50
2023-04-29T14:29:01.317Z,12.30
2023-04-29T14:31:30.563Z,10.37
2023-04-29T14:33:59.220Z,9.87
2023-04-29T14:36:28.280Z,10.43
2023-04-29T14:38:56.044Z,9.40
2023-04-29T14:41:24.266Z,9.73
2023-04-29T14:43:52.179Z,9.23
2023-04-29T14:46:22.358Z,10.30
2023-04-29T14:48:50.970Z,11.77
2023-04-29T14:51:19.115Z,12.50
2023-04-29T14:53:46.855Z,11.53
2023-04-29T14:56:14.920Z,10.33
2023-04-29T14:58:42.605Z,12.77
2023-04-29T15:01:10.799Z,15.77
2023-04-29T15:03:44.073Z,14.97
2023-04-29T15:06:12.717Z,14.90
2023-04-29T15:08:40.626Z,14.93
2023-04-29T15:11:08.379Z,14.67
2023-04-29T15:13:36.070Z,15.57
2023-04-29T15:16:04.391Z,14.43
2023-04-29T15:18:32.174Z,12.27
2023-04-29T15:21:01.572Z,14.73
2023-04-29T15:23:29.482Z,14.17
2023-04-29T15:25:57.648Z,11.43
2023-04-29T15:28:25.913Z,11.07
2023-04-29T15:30:53.693Z,10.83
2023-04-29T15:33:21.497Z,11.83
2023-04-29T15:35:49.330Z,9.90
2023-04-29T15:38:18.502Z,10.10
2023-04-29T15:40:46.449Z,9.77
2023-04-29T15:43:14.266Z,11.27
2023-04-29T15:45:42.574Z,11.43
2023-04-29T15:48:10.405Z,9.40
2023-04-29T15:50:38.201Z,8.37
2023-04-29T15:53:05.906Z,7.53
2023-04-29T15:55:36.337Z,6.67
2023-04-29T15:58:04.170Z,10.07
2023-04-29T16:00:32.554Z,8.53
2023-04-29T16:03:00.391Z,6.83
2023-04-29T16:05:28.873Z,8.30
2023-04-29T16:07:56.730Z,11.20
2023-04-29T16:10:24.587Z,9.97
2023-04-29T16:12:53.902Z,12.67
2023-04-29T16:15:21.753Z,11.37
2023-04-29T16:17:50.608Z,12.83
2023-04-29T16:20:19.326Z,14.53
2023-04-29T16:22:47.268Z,13.07
2023-04-29T16:25:15.168Z,11.90
2023-04-29T16:27:42.883Z,13.73
2023-04-29T16:30:13.468Z,11.27
2023-04-29T16:32:41.598Z,13.17
2023-04-29T16:35:10.319Z,14.63
2023-04-29T16:37:38.646Z,13.63
2023-04-29T16:40:08.074Z,13.90
2023-04-29T16:42:36.307Z,12.40
2023-04-29T16:45:04.066Z,10.80
2023-04-29T16:47:35.442Z,9.47
2023-04-29T16:50:04.040Z,9.90
2023-04-29T16:52:31.835Z,12.53
2023-04-29T16:55:01.446Z,11.97
2023-04-29T16:57:29.185Z,13.10
2023-04-29T16:59:57.043Z,12.80
2023-04-29T17:02:25.082Z,8.73
2023-04-29T17:04:54.547Z,9.50
2023-04-29T17:07:22.456Z,10.50
2023-04-29T17:09:50.199Z,9.80
2023-04-29T17:12:17.998Z,9.60
2023-04-29T17:14:48.274Z,9.60
2023-04-29T17:17:16.048Z,10.13
2023-04-29T17:19:44.038Z,9.90
2023-04-29T17:22:13.208Z,9.37
2023-04-29T17:24:44.744Z,9.90
2023-04-29T17:27:13.100Z,11.63
2023-04-29T17:29:41.392Z,10.10
2023-04-29T17:32:11.347Z,8.90
2023-04-29T17:34:39.259Z,8.33
2023-04-29T17:37:07.910Z,9.47
2023-04-29T17:39:37.231Z,7.53
2023-04-29T17:42:05.123Z,9.60
2023-04-29T17:44:32.850Z,10.50
2023-04-29T17:47:00.576Z,10.67
2023-04-29T17:49:28.371Z,15.57
2023-04-29T17:51:57.005Z,10.60
2023-04-29T17:54:26.175Z,7.87
2023-04-29T17:56:55.717Z,9.23
2023-04-29T17:59:23.482Z,11.43
2023-04-29T18:01:51.257Z,7.07
2023-04-29T18:04:19.070Z,8.10
2023-04-29T18:06:46.986Z,9.40
2023-04-29T18:09:16.539Z,9.17
2023-04-29T18:11:44.443Z,10.30
2023-04-29T18:14:13.657Z,8.57
2023-04-29T18:16:41.400Z,6.50
2023-04-29T18:19:09.133Z,6.33
2023-04-29T18:21:37.062Z,7.67
2023-04-29T18:24:05.365Z,8.83
2023-04-29T18:26:33.412Z,7.70
2023-04-29T18:29:01.166Z,6.97
2023-04-29T18:31:30.437Z,8.50
2023-04-29T18:33:58.204Z,9.67
2023-04-29T18:36:26.649Z,8.63
2023-04-29T18:38:54.517Z,6.93
2023-04-29T18:41:22.372Z,6.67
2023-04-29T18:43:50.173Z,7.10
2023-04-29T18:46:18.082Z,6.77
2023-04-29T18:48:47.298Z,7.57
2023-04-29T18:51:15.060Z,8.13
2023-04-29T18:53:42.950Z,6.23
2023-04-29T18:56:10.782Z,8.40
2023-04-29T18:58:38.558Z,8.60
2023-04-29T19:01:06.674Z,6.73
2023-04-29T19:03:34.512Z,7.13
2023-04-29T19:06:03.892Z,6.90
2023-04-29T19:08:32.239Z,8.53
2023-04-29T19:11:00.882Z,8.10
2023-04-29T19:13:29.336Z,8.07
2023-04-29T19:15:57.303Z,7.17
2023-04-29T19:18:25.099Z,5.93
2023-04-29T19:20:53.574Z,8.37
2023-04-29T19:23:22.972Z,8.13
2023-04-29T19:25:50.746Z,8.67
2023-04-29T19:28:19.282Z,7.47
2023-04-29T19:30:47.161Z,9.53
2023-04-29T19:33:15.077Z,7.37
2023-04-29T19:35:42.834Z,7.33
2023-04-29T19:38:11.097Z,9.47
2023-04-29T19:40:40.424Z,8.20
2023-04-29T19:43:08.396Z,9.20
2023-04-29T19:45:36.293Z,9.97
2023-04-29T19:48:05.025Z,9.37
2023-04-29T19:50:33.082Z,9.47
2023-04-29T19:53:00.844Z,7.83
2023-04-29T19:55:28.709Z,9.67
2023-04-29T19:57:58.531Z,9.03
2023-04-29T20:00:27.025Z,7.37
2023-04-29T20:02:54.869Z,8.97
2023-04-29T20:05:22.915Z,10.40
2023-04-29T20:07:50.904Z,11.20
2023-04-29T20:10:18.603Z,7.93
2023-04-29T20:12:46.697Z,12.67
2023-04-29T20:15:16.481Z,11.87
2023-04-29T20:17:44.446Z,13.97
2023-04-29T20:20:12.586Z,9.57
2023-04-29T20:22:40.340Z,9.33
2023-04-29T20:25:08.787Z,11.07
2023-04-29T20:27:36.752Z,9.90
2023-04-29T20:30:05.418Z,10.30
2023-04-29T20:32:34.594Z,10.23
2023-04-29T20:35:02.596Z,9.50
2023-04-29T20:37:31.711Z,8.77
2023-04-29T20:39:59.540Z,9.57
2023-04-29T20:42:27.270Z,11.83
2023-04-29T20:44:55.240Z,9.93
2023-04-29T20:47:23.210Z,11.93
2023-04-29T20:49:52.257Z,10.57
2023-04-29T20:52:20.366Z,10.70
2023-04-29T20:54:48.295Z,11.97
2023-04-29T20:57:16.198Z,12.43
2023-04-29T20:59:44.201Z,13.17
2023-04-29T21:02:12.134Z,9.47
2023-04-29T21:04:40.184Z,9.43
2023-04-29T21:07:10.266Z,10.60
2023-04-29T21:09:38.653Z,11.77
2023-04-29T21:12:06.848Z,12.60
2023-04-29T21:14:34.997Z,10.37
2023-04-29T21:17:02.861Z,14.00
2023-04-29T21:19:30.725Z,14.27
2023-04-29T21:21:58.797Z,9.43
2023-04-29T21:24:28.733Z,12.97
2023-04-29T21:26:56.573Z,9.67
2023-04-29T21:29:24.336Z,11.80
2023-04-29T21:31:52.779Z,12.27
2023-04-29T21:34:20.624Z,9.17
2023-04-29T21:36:48.612Z,9.60
2023-04-29T21:39:16.704Z,10.80
2023-04-29T21:41:46.149Z,11.73
2023-04-29T21:44:14.605Z,11.27
2023-04-29T21:46:42.541Z,12.70
2023-04-29T21:49:10.686Z,11.43
2023-04-29T21:51:38.647Z,10.03
2023-04-29T21:54:08.488Z,11.03
2023-04-29T21:56:36.833Z,10.67
2023-04-29T21:59:06.449Z,10.63
2023-04-29T22:01:49.458Z,11.83
2023-04-29T22:04:17.549Z,9.60
2023-04-29T22:06:46.074Z,10.80
2023-04-29T22:09:14.005Z,9.83
2023-04-29T22:11:42.381Z,9.73
2023-04-29T22:14:11.730Z,9.40
2023-04-29T22:16:39.581Z,10.30
2023-04-29T22:19:07.618Z,8.17
2023-04-29T22:21:35.579Z,10.10
2023-04-29T22:24:03.347Z,11.67
2023-04-29T22:26:31.260Z,10.07
2023-04-29T22:28:59.074Z,11.73
2023-04-29T22:31:28.662Z,9.47
2023-04-29T22:33:56.467Z,9.30
2023-04-29T22:36:24.243Z,9.70
2023-04-29T22:38:52.483Z,10.40
2023-04-29T22:41:20.337Z,11.17
2023-04-29T22:43:48.257Z,10.30
2023-04-29T22:46:16.247Z,9.97
2023-04-29T22:48:45.586Z,13.63
2023-04-29T22:51:13.315Z,10.97
2023-04-29T22:53:41.079Z,12.07
2023-04-29T22:56:08.932Z,12.87
2023-04-29T22:58:36.856Z,8.37
2023-04-29T23:01:04.729Z,11.10
2023-04-29T23:03:32.510Z,9.80
2023-04-29T23:06:02.608Z,8.23
2023-04-29T23:08:30.592Z,9.70
2023-04-29T23:10:58.541Z,11.03
2023-04-29T23:13:26.504Z,8.87
2023-04-29T23:15:56.640Z,10.47
2023-04-29T23:18:24.623Z,9.57
2023-04-29T23:20:52.918Z,8.50
2023-04-29T23:23:22.190Z,9.87
2023-04-29T23:25:50.543Z,7.87
2023-04-29T23:28:18.423Z,11.30
2023-04-29T23:30:47.731Z,10.63
2023-04-29T23:33:15.743Z,10.60
2023-04-29T23:35:49.617Z,9.03
2023-04-29T23:38:17.583Z,11.23
2023-04-29T23:40:47.359Z,13.60
2023-04-29T23:43:15.779Z,11.93
2023-04-29T23:45:45.145Z,13.00
2023-04-29T23:48:13.344Z,11.10
2023-04-29T23:50:41.812Z,9.67
2023-04-29T23:53:09.686Z,10.53
2023-04-29T23:55:37.504Z,10.73
2023-04-29T23:58:07.655Z,11.20
